sensor_id;sensor_type;location;lat;lon;timestamp;pressure;altitude;pressure_sealevel;temperature;humidity
10881;BME280;5493;48.884;8.338;2023-06-26T00:01:00;100038.28;;;22.03;100.00
10881;BME280;5493;48.884;8.338;2023-06-26T00:03:27;100041.25;;;22.07;100.00
10881;BME280;5493;48.884;8.338;2023-06-26T00:05:54;100032.81;;;22.03;100.00
10881;BME280;5493;48.884;8.338;2023-06-26T00:08:26;100042.09;;;21.89;100.00
10881;BME280;5493;48.884;8.338;2023-06-26T00:10:52;100042.66;;;21.91;100.00
10881;BME280;5493;48.884;8.338;2023-06-26T00:13:19;100046.44;;;21.95;100.00
10881;BME280;5493;48.884;8.338;2023-06-26T00:15:45;100044.72;;;21.99;100.00
10881;BME280;5493;48.884;8.338;2023-06-26T00:18:13;100053.66;;;22.04;100.00
10881;BME280;5493;48.884;8.338;2023-06-26T00:20:39;100050.31;;;22.07;100.00
10881;BME280;5493;48.884;8.338;2023-06-26T00:23:06;100058.66;;;22.02;100.00
10881;BME280;5493;48.884;8.338;2023-06-26T00:25:32;100049.78;;;21.92;100.00
10881;BME280;5493;48.884;8.338;2023-06-26T00:27:59;100053.19;;;21.65;100.00
10881;BME280;5493;48.884;8.338;2023-06-26T00:30:26;100056.91;;;21.55;100.00
10881;BME280;5493;48.884;8.338;2023-06-26T00:32:52;100058.44;;;21.62;100.00
10881;BME280;5493;48.884;8.338;2023-06-26T00:35:20;100062.88;;;21.76;100.00
10881;BME280;5493;48.884;8.338;2023-06-26T00:37:47;100059.28;;;21.62;100.00
10881;BME280;5493;48.884;8.338;2023-06-26T00:40:13;100060.97;;;21.58;100.00
10881;BME280;5493;48.884;8.338;2023-06-26T00:42:40;100053.56;;;21.40;100.00
10881;BME280;5493;48.884;8.338;2023-06-26T00:45:06;100061.34;;;21.70;100.00
10881;BME280;5493;48.884;8.338;2023-06-26T00:47:33;100059.94;;;21.73;100.00
10881;BME280;5493;48.884;8.338;2023-06-26T00:50:00;100066.53;;;21.53;100.00
10881;BME280;5493;48.884;8.338;2023-06-26T00:52:28;100059.72;;;21.50;100.00
10881;BME280;5493;48.884;8.338;2023-06-26T00:54:55;100055.56;;;21.53;100.00
10881;BME280;5493;48.884;8.338;2023-06-26T00:57:22;100057.13;;;21.40;100.00
10881;BME280;5493;48.884;8.338;2023-06-26T00:59:50;100057.84;;;21.27;100.00
10881;BME280;5493;48.884;8.338;2023-06-26T01:02:16;100054.66;;;21.57;100.00
10881;BME280;5493;48.884;8.338;2023-06-26T01:04:46;100051.59;;;21.78;100.00
10881;BME280;5493;48.884;8.338;2023-06-26T01:07:13;100052.84;;;21.85;100.00
10881;BME280;5493;48.884;8.338;2023-06-26T01:09:42;100057.47;;;21.52;100.00
10881;BME280;5493;48.884;8.338;2023-06-26T01:12:09;100051.69;;;21.73;100.00
10881;BME280;5493;48.884;8.338;2023-06-26T01:14:35;100057.22;;;21.86;100.00
10881;BME280;5493;48.884;8.338;2023-06-26T01:17:03;100046.72;;;21.75;100.00
10881;BME280;5493;48.884;8.338;2023-06-26T01:19:31;100054.94;;;21.56;100.00
10881;BME280;5493;48.884;8.338;2023-06-26T01:22:04;100043.91;;;21.61;100.00
10881;BME280;5493;48.884;8.338;2023-06-26T01:24:44;100042.81;;;21.62;100.00
10881;BME280;5493;48.884;8.338;2023-06-26T01:27:14;100035.66;;;21.80;100.00
10881;BME280;5493;48.884;8.338;2023-06-26T01:29:43;100035.84;;;21.70;100.00
10881;BME280;5493;48.884;8.338;2023-06-26T01:32:10;100036.88;;;21.74;100.00
10881;BME280;5493;48.884;8.338;2023-06-26T01:34:37;100042.00;;;21.43;100.00
10881;BME280;5493;48.884;8.338;2023-06-26T01:37:04;100041.94;;;21.29;100.00
10881;BME280;5493;48.884;8.338;2023-06-26T01:39:30;100034.94;;;21.18;100.00
10881;BME280;5493;48.884;8.338;2023-06-26T01:41:57;100028.50;;;21.28;100.00
10881;BME280;5493;48.884;8.338;2023-06-26T01:44:28;100035.41;;;21.44;100.00
10881;BME280;5493;48.884;8.338;2023-06-26T01:47:00;100029.97;;;21.57;100.00
10881;BME280;5493;48.884;8.338;2023-06-26T01:49:36;100039.56;;;21.23;100.00
10881;BME280;5493;48.884;8.338;2023-06-26T01:52:09;100030.47;;;21.03;100.00
10881;BME280;5493;48.884;8.338;2023-06-26T01:54:47;100031.09;;;20.95;100.00
10881;BME280;5493;48.884;8.338;2023-06-26T01:57:17;100034.44;;;20.92;100.00
10881;BME280;5493;48.884;8.338;2023-06-26T01:59:46;100028.47;;;20.90;100.00
10881;BME280;5493;48.884;8.338;2023-06-26T02:02:13;100028.91;;;20.97;100.00
10881;BME280;5493;48.884;8.338;2023-06-26T02:04:40;100032.38;;;21.03;100.00
10881;BME280;5493;48.884;8.338;2023-06-26T02:07:07;100027.91;;;20.88;100.00
10881;BME280;5493;48.884;8.338;2023-06-26T02:09:35;100023.75;;;20.91;100.00
10881;BME280;5493;48.884;8.338;2023-06-26T02:12:01;100027.94;;;21.07;100.00
10881;BME280;5493;48.884;8.338;2023-06-26T02:14:28;100021.84;;;21.15;100.00
10881;BME280;5493;48.884;8.338;2023-06-26T02:16:56;100024.53;;;20.96;100.00
10881;BME280;5493;48.884;8.338;2023-06-26T02:19:22;100013.94;;;21.08;100.00
10881;BME280;5493;48.884;8.338;2023-06-26T02:21:50;100025.44;;;20.68;100.00
10881;BME280;5493;48.884;8.338;2023-06-26T02:24:16;100014.75;;;20.67;100.00
10881;BME280;5493;48.884;8.338;2023-06-26T02:26:43;100013.28;;;20.74;100.00
10881;BME280;5493;48.884;8.338;2023-06-26T02:29:09;100009.78;;;20.92;100.00
10881;BME280;5493;48.884;8.338;2023-06-26T02:31:36;100009.84;;;20.87;100.00
10881;BME280;5493;48.884;8.338;2023-06-26T02:34:04;100005.44;;;20.68;100.00
10881;BME280;5493;48.884;8.338;2023-06-26T02:36:30;100010.63;;;20.69;100.00
10881;BME280;5493;48.884;8.338;2023-06-26T02:38:57;100017.50;;;20.90;100.00
10881;BME280;5493;48.884;8.338;2023-06-26T02:41:23;100016.81;;;20.80;100.00
10881;BME280;5493;48.884;8.338;2023-06-26T02:43:50;100013.66;;;20.68;100.00
10881;BME280;5493;48.884;8.338;2023-06-26T02:46:16;100014.63;;;20.77;100.00
10881;BME280;5493;48.884;8.338;2023-06-26T02:48:43;100017.34;;;20.58;100.00
10881;BME280;5493;48.884;8.338;2023-06-26T02:51:11;100013.09;;;20.47;100.00
10881;BME280;5493;48.884;8.338;2023-06-26T02:53:37;100024.59;;;20.44;100.00
10881;BME280;5493;48.884;8.338;2023-06-26T02:56:04;100017.22;;;20.15;100.00
10881;BME280;5493;48.884;8.338;2023-06-26T02:58:31;100015.63;;;20.09;100.00
10881;BME280;5493;48.884;8.338;2023-06-26T03:00:57;100018.75;;;20.27;100.00
10881;BME280;5493;48.884;8.338;2023-06-26T03:03:23;100018.81;;;20.22;100.00
10881;BME280;5493;48.884;8.338;2023-06-26T03:05:50;100023.16;;;20.23;100.00
10881;BME280;5493;48.884;8.338;2023-06-26T03:08:18;100019.81;;;20.31;100.00
10881;BME280;5493;48.884;8.338;2023-06-26T03:10:44;100026.22;;;20.21;100.00
10881;BME280;5493;48.884;8.338;2023-06-26T03:13:11;100029.34;;;20.04;100.00
10881;BME280;5493;48.884;8.338;2023-06-26T03:15:37;100028.22;;;20.10;100.00
10881;BME280;5493;48.884;8.338;2023-06-26T03:18:04;100033.75;;;20.05;100.00
10881;BME280;5493;48.884;8.338;2023-06-26T03:20:30;100035.66;;;20.05;100.00
10881;BME280;5493;48.884;8.338;2023-06-26T03:22:57;100027.53;;;19.95;100.00
10881;BME280;5493;48.884;8.338;2023-06-26T03:25:25;100031.72;;;19.87;100.00
10881;BME280;5493;48.884;8.338;2023-06-26T03:27:51;100028.13;;;19.92;100.00
10881;BME280;5493;48.884;8.338;2023-06-26T03:30:17;100033.47;;;20.07;100.00
10881;BME280;5493;48.884;8.338;2023-06-26T03:32:44;100032.91;;;20.05;100.00
10881;BME280;5493;48.884;8.338;2023-06-26T03:35:10;100030.16;;;20.10;100.00
10881;BME280;5493;48.884;8.338;2023-06-26T03:37:37;100037.81;;;20.08;100.00
10881;BME280;5493;48.884;8.338;2023-06-26T03:40:04;100038.34;;;20.10;100.00
10881;BME280;5493;48.884;8.338;2023-06-26T03:42:32;100043.28;;;20.08;100.00
10881;BME280;5493;48.884;8.338;2023-06-26T03:44:59;100042.97;;;20.14;100.00
10881;BME280;5493;48.884;8.338;2023-06-26T03:47:25;100037.06;;;20.02;100.00
10881;BME280;5493;48.884;8.338;2023-06-26T03:49:51;100041.91;;;20.10;100.00
10881;BME280;5493;48.884;8.338;2023-06-26T03:52:18;100037.66;;;20.23;100.00
10881;BME280;5493;48.884;8.338;2023-06-26T03:54:44;100037.09;;;20.26;100.00
10881;BME280;5493;48.884;8.338;2023-06-26T03:57:11;100051.72;;;20.45;100.00
10881;BME280;5493;48.884;8.338;2023-06-26T03:59:39;100050.41;;;20.38;100.00
10881;BME280;5493;48.884;8.338;2023-06-26T04:02:05;100063.00;;;20.39;100.00
10881;BME280;5493;48.884;8.338;2023-06-26T04:04:32;100068.38;;;20.20;100.00
10881;BME280;5493;48.884;8.338;2023-06-26T04:06:58;100073.41;;;20.08;100.00
10881;BME280;5493;48.884;8.338;2023-06-26T04:09:25;100071.06;;;19.96;100.00
10881;BME280;5493;48.884;8.338;2023-06-26T04:11:51;100075.66;;;20.01;100.00
10881;BME280;5493;48.884;8.338;2023-06-26T04:14:18;100075.13;;;19.99;100.00
10881;BME280;5493;48.884;8.338;2023-06-26T04:16:46;100075.66;;;20.01;100.00
10881;BME280;5493;48.884;8.338;2023-06-26T04:19:12;100076.72;;;20.05;100.00
10881;BME280;5493;48.884;8.338;2023-06-26T04:21:39;100073.28;;;20.52;100.00
10881;BME280;5493;48.884;8.338;2023-06-26T04:24:06;100068.69;;;20.71;100.00
10881;BME280;5493;48.884;8.338;2023-06-26T04:26:32;100070.91;;;20.93;100.00
10881;BME280;5493;48.884;8.338;2023-06-26T04:28:59;100065.34;;;21.40;100.00
10881;BME280;5493;48.884;8.338;2023-06-26T04:31:26;100062.88;;;21.76;100.00
10881;BME280;5493;48.884;8.338;2023-06-26T04:33:53;100069.09;;;21.82;100.00
10881;BME280;5493;48.884;8.338;2023-06-26T04:36:20;100063.09;;;21.98;100.00
10881;BME280;5493;48.884;8.338;2023-06-26T04:38:47;100061.66;;;22.33;100.00
10881;BME280;5493;48.884;8.338;2023-06-26T04:41:14;100065.69;;;22.68;100.00
10881;BME280;5493;48.884;8.338;2023-06-26T04:43:41;100060.38;;;23.13;100.00
10881;BME280;5493;48.884;8.338;2023-06-26T04:46:07;100067.88;;;23.34;100.00
10881;BME280;5493;48.884;8.338;2023-06-26T04:48:34;100072.19;;;23.76;100.00
10881;BME280;5493;48.884;8.338;2023-06-26T04:51:01;100069.63;;;23.30;100.00
10881;BME280;5493;48.884;8.338;2023-06-26T04:53:28;100066.97;;;23.39;100.00
10881;BME280;5493;48.884;8.338;2023-06-26T04:55:54;100067.84;;;23.62;100.00
10881;BME280;5493;48.884;8.338;2023-06-26T04:58:21;100073.41;;;23.70;100.00
10881;BME280;5493;48.884;8.338;2023-06-26T05:00:47;100064.91;;;24.02;100.00
10881;BME280;5493;48.884;8.338;2023-06-26T05:03:15;100067.84;;;24.28;100.00
10881;BME280;5493;48.884;8.338;2023-06-26T05:05:42;100066.47;;;24.79;100.00
10881;BME280;5493;48.884;8.338;2023-06-26T05:08:17;100064.19;;;25.37;100.00
10881;BME280;5493;48.884;8.338;2023-06-26T05:10:44;100061.66;;;25.75;100.00
10881;BME280;5493;48.884;8.338;2023-06-26T05:13:10;100055.13;;;25.88;94.38
10881;BME280;5493;48.884;8.338;2023-06-26T05:15:40;100055.09;;;26.31;89.30
10881;BME280;5493;48.884;8.338;2023-06-26T05:18:06;100049.34;;;26.45;84.94
10881;BME280;5493;48.884;8.338;2023-06-26T05:20:34;100057.75;;;27.24;84.58
10881;BME280;5493;48.884;8.338;2023-06-26T05:23:01;100062.38;;;27.41;79.21
10881;BME280;5493;48.884;8.338;2023-06-26T05:25:30;100061.88;;;27.48;76.84
10881;BME280;5493;48.884;8.338;2023-06-26T05:27:57;100062.25;;;27.58;76.32
10881;BME280;5493;48.884;8.338;2023-06-26T05:30:24;100063.81;;;27.47;79.70
10881;BME280;5493;48.884;8.338;2023-06-26T05:32:52;100059.69;;;27.74;78.40
10881;BME280;5493;48.884;8.338;2023-06-26T05:35:20;100059.66;;;27.95;75.72
10881;BME280;5493;48.884;8.338;2023-06-26T05:37:48;100069.53;;;27.83;78.04
10881;BME280;5493;48.884;8.338;2023-06-26T05:40:16;100070.53;;;28.20;76.82
10881;BME280;5493;48.884;8.338;2023-06-26T05:42:44;100073.25;;;28.08;77.03
10881;BME280;5493;48.884;8.338;2023-06-26T05:45:11;100071.69;;;27.99;78.55
10881;BME280;5493;48.884;8.338;2023-06-26T05:47:38;100081.13;;;28.18;75.19
10881;BME280;5493;48.884;8.338;2023-06-26T05:50:06;100082.41;;;28.54;74.62
10881;BME280;5493;48.884;8.338;2023-06-26T05:52:33;100091.34;;;28.71;73.93
10881;BME280;5493;48.884;8.338;2023-06-26T05:55:00;100092.97;;;28.84;71.28
10881;BME280;5493;48.884;8.338;2023-06-26T05:57:28;100101.78;;;28.87;70.70
10881;BME280;5493;48.884;8.338;2023-06-26T05:59:57;100089.66;;;28.58;70.88
10881;BME280;5493;48.884;8.338;2023-06-26T06:02:23;100092.31;;;28.55;71.15
10881;BME280;5493;48.884;8.338;2023-06-26T06:04:50;100092.16;;;28.72;68.65
10881;BME280;5493;48.884;8.338;2023-06-26T06:07:16;100090.13;;;29.29;68.89
10881;BME280;5493;48.884;8.338;2023-06-26T06:09:43;100097.47;;;29.38;67.44
10881;BME280;5493;48.884;8.338;2023-06-26T06:12:10;100086.88;;;29.79;64.81
10881;BME280;5493;48.884;8.338;2023-06-26T06:14:36;100088.00;;;29.78;64.80
10881;BME280;5493;48.884;8.338;2023-06-26T06:17:04;100092.41;;;30.35;63.09
10881;BME280;5493;48.884;8.338;2023-06-26T06:19:30;100100.84;;;30.23;63.67
10881;BME280;5493;48.884;8.338;2023-06-26T06:21:57;100100.38;;;30.64;62.15
10881;BME280;5493;48.884;8.338;2023-06-26T06:24:23;100108.03;;;30.52;62.02
10881;BME280;5493;48.884;8.338;2023-06-26T06:26:50;100105.53;;;30.78;62.82
10881;BME280;5493;48.884;8.338;2023-06-26T06:29:16;100103.31;;;30.99;59.23
10881;BME280;5493;48.884;8.338;2023-06-26T06:31:44;100100.50;;;30.84;60.72
10881;BME280;5493;48.884;8.338;2023-06-26T06:34:12;100097.69;;;31.31;58.34
10881;BME280;5493;48.884;8.338;2023-06-26T06:36:38;100097.34;;;31.16;58.76
10881;BME280;5493;48.884;8.338;2023-06-26T06:39:05;100098.81;;;31.10;59.52
10881;BME280;5493;48.884;8.338;2023-06-26T06:41:31;100090.16;;;30.68;58.22
10881;BME280;5493;48.884;8.338;2023-06-26T06:43:58;100100.06;;;30.82;60.18
10881;BME280;5493;48.884;8.338;2023-06-26T06:46:24;100094.81;;;30.49;60.82
10881;BME280;5493;48.884;8.338;2023-06-26T06:48:52;100106.31;;;30.47;62.80
10881;BME280;5493;48.884;8.338;2023-06-26T06:51:20;100110.91;;;30.55;61.92
10881;BME280;5493;48.884;8.338;2023-06-26T06:53:46;100102.84;;;30.38;62.47
10881;BME280;5493;48.884;8.338;2023-06-26T06:56:13;100106.31;;;30.47;64.33
10881;BME280;5493;48.884;8.338;2023-06-26T06:58:39;100104.34;;;30.20;63.27
10881;BME280;5493;48.884;8.338;2023-06-26T07:01:07;100106.88;;;30.53;63.47
10881;BME280;5493;48.884;8.338;2023-06-26T07:03:34;100098.84;;;30.51;63.27
10881;BME280;5493;48.884;8.338;2023-06-26T07:06:01;100108.81;;;30.24;64.93
10881;BME280;5493;48.884;8.338;2023-06-26T07:08:29;100104.44;;;30.23;65.34
10881;BME280;5493;48.884;8.338;2023-06-26T07:10:56;100103.00;;;30.42;65.70
10881;BME280;5493;48.884;8.338;2023-06-26T07:13:23;100109.00;;;30.75;64.29
10881;BME280;5493;48.884;8.338;2023-06-26T07:15:49;100102.75;;;31.09;64.29
10881;BME280;5493;48.884;8.338;2023-06-26T07:18:16;100109.63;;;31.47;62.02
10881;BME280;5493;48.884;8.338;2023-06-26T07:20:43;100102.75;;;31.44;62.58
10881;BME280;5493;48.884;8.338;2023-06-26T07:23:09;100107.72;;;31.51;62.67
10881;BME280;5493;48.884;8.338;2023-06-26T07:25:37;100100.88;;;31.13;66.66
10881;BME280;5493;48.884;8.338;2023-06-26T07:28:09;100103.59;;;31.99;61.02
10881;BME280;5493;48.884;8.338;2023-06-26T07:30:36;100101.38;;;31.89;60.77
10881;BME280;5493;48.884;8.338;2023-06-26T07:33:03;100104.63;;;32.29;58.27
10881;BME280;5493;48.884;8.338;2023-06-26T07:35:29;100111.34;;;32.66;57.46
10881;BME280;5493;48.884;8.338;2023-06-26T07:37:55;100091.25;;;31.46;57.78
10881;BME280;5493;48.884;8.338;2023-06-26T07:40:22;100109.97;;;31.61;59.32
10881;BME280;5493;48.884;8.338;2023-06-26T07:42:50;100102.56;;;31.88;57.82
10881;BME280;5493;48.884;8.338;2023-06-26T07:45:17;100107.97;;;31.81;58.07
10881;BME280;5493;48.884;8.338;2023-06-26T07:47:43;100113.09;;;32.55;55.60
10881;BME280;5493;48.884;8.338;2023-06-26T07:50:10;100108.09;;;32.64;54.86
10881;BME280;5493;48.884;8.338;2023-06-26T07:52:37;100109.34;;;32.67;53.61
10881;BME280;5493;48.884;8.338;2023-06-26T07:55:04;100112.50;;;32.65;53.57
10881;BME280;5493;48.884;8.338;2023-06-26T07:57:31;100122.78;;;33.07;51.56
10881;BME280;5493;48.884;8.338;2023-06-26T07:59:59;100116.44;;;33.33;49.50
10881;BME280;5493;48.884;8.338;2023-06-26T08:02:25;100125.84;;;32.98;50.39
10881;BME280;5493;48.884;8.338;2023-06-26T08:04:52;100108.94;;;31.88;50.60
10881;BME280;5493;48.884;8.338;2023-06-26T08:07:18;100120.59;;;32.51;52.56
10881;BME280;5493;48.884;8.338;2023-06-26T08:09:45;100125.91;;;33.02;51.68
10881;BME280;5493;48.884;8.338;2023-06-26T08:12:11;100121.44;;;32.75;50.50
10881;BME280;5493;48.884;8.338;2023-06-26T08:14:38;100122.00;;;32.42;51.87
10881;BME280;5493;48.884;8.338;2023-06-26T08:17:05;100124.38;;;32.20;54.20
10881;BME280;5493;48.884;8.338;2023-06-26T08:19:32;100134.59;;;32.97;53.32
10881;BME280;5493;48.884;8.338;2023-06-26T08:21:58;100132.00;;;33.86;50.65
10881;BME280;5493;48.884;8.338;2023-06-26T08:24:25;100125.72;;;33.14;53.28
10881;BME280;5493;48.884;8.338;2023-06-26T08:26:51;100137.50;;;32.39;55.71
10881;BME280;5493;48.884;8.338;2023-06-26T08:29:18;100143.66;;;32.90;54.77
10881;BME280;5493;48.884;8.338;2023-06-26T08:31:44;100149.94;;;32.23;58.11
10881;BME280;5493;48.884;8.338;2023-06-26T08:34:12;100151.41;;;32.78;57.23
10881;BME280;5493;48.884;8.338;2023-06-26T08:36:39;100160.38;;;32.26;58.85
10881;BME280;5493;48.884;8.338;2023-06-26T08:39:05;100158.31;;;31.68;62.36
10881;BME280;5493;48.884;8.338;2023-06-26T08:41:33;100161.03;;;31.84;62.12
10881;BME280;5493;48.884;8.338;2023-06-26T08:44:00;100161.78;;;31.31;65.83
10881;BME280;5493;48.884;8.338;2023-06-26T08:46:28;100164.91;;;31.60;64.06
10881;BME280;5493;48.884;8.338;2023-06-26T08:48:55;100159.53;;;31.87;63.67
10881;BME280;5493;48.884;8.338;2023-06-26T08:51:25;100162.09;;;31.45;66.76
10881;BME280;5493;48.884;8.338;2023-06-26T08:53:56;100166.13;;;31.79;66.59
10881;BME280;5493;48.884;8.338;2023-06-26T08:56:24;100160.06;;;31.77;64.62
10881;BME280;5493;48.884;8.338;2023-06-26T08:58:51;100160.66;;;32.20;63.74
10881;BME280;5493;48.884;8.338;2023-06-26T09:01:18;100154.63;;;31.49;64.94
10881;BME280;5493;48.884;8.338;2023-06-26T09:03:45;100160.38;;;32.06;63.97
10881;BME280;5493;48.884;8.338;2023-06-26T09:06:11;100158.41;;;31.72;65.30
10881;BME280;5493;48.884;8.338;2023-06-26T09:08:39;100159.25;;;30.94;67.58
10881;BME280;5493;48.884;8.338;2023-06-26T09:11:05;100170.81;;;31.75;64.73
10881;BME280;5493;48.884;8.338;2023-06-26T09:13:32;100182.00;;;31.94;67.52
10881;BME280;5493;48.884;8.338;2023-06-26T09:15:59;100175.91;;;31.53;68.06
10881;BME280;5493;48.884;8.338;2023-06-26T09:18:31;100184.56;;;32.02;68.21
10881;BME280;5493;48.884;8.338;2023-06-26T09:20:58;100185.50;;;31.91;68.20
10881;BME280;5493;48.884;8.338;2023-06-26T09:23:25;100190.78;;;31.45;70.93
10881;BME280;5493;48.884;8.338;2023-06-26T09:25:54;100188.56;;;32.20;67.42
10881;BME280;5493;48.884;8.338;2023-06-26T09:28:20;100207.00;;;31.24;72.33
10881;BME280;5493;48.884;8.338;2023-06-26T09:30:47;100201.28;;;30.89;75.77
10881;BME280;5493;48.884;8.338;2023-06-26T09:33:16;100196.81;;;31.00;75.36
10881;BME280;5493;48.884;8.338;2023-06-26T09:35:43;100185.88;;;31.07;77.24
10881;BME280;5493;48.884;8.338;2023-06-26T09:38:11;100196.47;;;31.02;75.47
10881;BME280;5493;48.884;8.338;2023-06-26T09:40:38;100202.22;;;31.09;76.13
10881;BME280;5493;48.884;8.338;2023-06-26T09:43:06;100204.72;;;30.98;77.56
10881;BME280;5493;48.884;8.338;2023-06-26T09:45:33;100209.09;;;31.78;73.18
10881;BME280;5493;48.884;8.338;2023-06-26T09:48:01;100204.47;;;31.50;73.04
10881;BME280;5493;48.884;8.338;2023-06-26T09:50:29;100210.72;;;31.79;73.72
10881;BME280;5493;48.884;8.338;2023-06-26T09:52:57;100200.78;;;31.31;75.85
10881;BME280;5493;48.884;8.338;2023-06-26T09:55:25;100204.81;;;31.33;76.09
10881;BME280;5493;48.884;8.338;2023-06-26T09:57:52;100192.84;;;31.48;76.99
10881;BME280;5493;48.884;8.338;2023-06-26T10:00:22;100193.78;;;31.52;75.57
10881;BME280;5493;48.884;8.338;2023-06-26T10:02:48;100186.38;;;30.82;78.21
10881;BME280;5493;48.884;8.338;2023-06-26T10:05:15;100200.69;;;30.52;82.66
10881;BME280;5493;48.884;8.338;2023-06-26T10:07:41;100205.97;;;31.01;80.89
10881;BME280;5493;48.884;8.338;2023-06-26T10:10:08;100185.59;;;30.13;86.43
10881;BME280;5493;48.884;8.338;2023-06-26T10:12:36;100199.53;;;30.41;86.33
10881;BME280;5493;48.884;8.338;2023-06-26T10:15:03;100200.81;;;30.44;84.87
10881;BME280;5493;48.884;8.338;2023-06-26T10:17:35;100192.00;;;30.69;84.25
10881;BME280;5493;48.884;8.338;2023-06-26T10:20:03;100181.75;;;30.18;87.34
10881;BME280;5493;48.884;8.338;2023-06-26T10:22:36;100196.75;;;30.69;85.74
10881;BME280;5493;48.884;8.338;2023-06-26T10:25:06;100195.91;;;30.96;83.50
10881;BME280;5493;48.884;8.338;2023-06-26T10:27:37;100189.03;;;30.62;81.63
10881;BME280;5493;48.884;8.338;2023-06-26T10:30:09;100188.50;;;31.82;77.01
10881;BME280;5493;48.884;8.338;2023-06-26T10:32:39;100183.00;;;31.35;79.79
10881;BME280;5493;48.884;8.338;2023-06-26T10:35:06;100189.97;;;31.95;74.72
10881;BME280;5493;48.884;8.338;2023-06-26T10:37:43;100197.19;;;31.30;77.69
10881;BME280;5493;48.884;8.338;2023-06-26T10:40:11;100196.34;;;32.50;72.19
10881;BME280;5493;48.884;8.338;2023-06-26T10:42:39;100190.78;;;32.69;69.27
10881;BME280;5493;48.884;8.338;2023-06-26T10:45:09;100210.13;;;32.81;67.70
10881;BME280;5493;48.884;8.338;2023-06-26T10:47:39;100206.75;;;32.91;69.21
10881;BME280;5493;48.884;8.338;2023-06-26T10:50:20;100200.59;;;33.05;66.99
10881;BME280;5493;48.884;8.338;2023-06-26T10:53:07;100201.22;;;33.40;63.03
10881;BME280;5493;48.884;8.338;2023-06-26T10:55:34;100198.50;;;33.21;60.17
10881;BME280;5493;48.884;8.338;2023-06-26T10:58:00;100197.44;;;33.78;61.18
10881;BME280;5493;48.884;8.338;2023-06-26T11:00:27;100215.72;;;33.46;60.43
10881;BME280;5493;48.884;8.338;2023-06-26T11:02:55;100199.13;;;32.50;64.73
10881;BME280;5493;48.884;8.338;2023-06-26T11:05:26;100196.78;;;32.13;68.15
10881;BME280;5493;48.884;8.338;2023-06-26T11:08:06;100207.50;;;32.31;65.99
10881;BME280;5493;48.884;8.338;2023-06-26T11:10:49;100207.91;;;31.94;64.75
10881;BME280;5493;48.884;8.338;2023-06-26T11:13:17;100213.28;;;31.68;68.25
10881;BME280;5493;48.884;8.338;2023-06-26T11:15:44;100215.66;;;30.91;70.75
10881;BME280;5493;48.884;8.338;2023-06-26T11:18:12;100210.53;;;30.93;71.63
10881;BME280;5493;48.884;8.338;2023-06-26T11:20:39;100226.41;;;31.36;68.45
10881;BME280;5493;48.884;8.338;2023-06-26T11:23:07;100217.56;;;31.65;64.24
10881;BME280;5493;48.884;8.338;2023-06-26T11:25:34;100214.06;;;32.03;60.29
10881;BME280;5493;48.884;8.338;2023-06-26T11:28:03;100205.19;;;31.16;63.99
10881;BME280;5493;48.884;8.338;2023-06-26T11:30:30;100217.06;;;31.29;64.24
10881;BME280;5493;48.884;8.338;2023-06-26T11:33:06;100188.25;;;30.93;63.38
10881;BME280;5493;48.884;8.338;2023-06-26T11:35:34;100220.41;;;30.91;64.63
10881;BME280;5493;48.884;8.338;2023-06-26T11:38:03;100218.38;;;31.82;59.35
10881;BME280;5493;48.884;8.338;2023-06-26T11:40:31;100205.75;;;32.23;56.60
10881;BME280;5493;48.884;8.338;2023-06-26T11:42:59;100209.44;;;32.65;53.10
10881;BME280;5493;48.884;8.338;2023-06-26T11:45:27;100213.03;;;32.65;50.89
10881;BME280;5493;48.884;8.338;2023-06-26T11:47:54;100215.34;;;32.83;49.20
10881;BME280;5493;48.884;8.338;2023-06-26T11:50:21;100220.78;;;32.95;48.30
10881;BME280;5493;48.884;8.338;2023-06-26T11:52:54;100210.44;;;32.57;47.22
10881;BME280;5493;48.884;8.338;2023-06-26T11:55:22;100210.66;;;33.09;47.24
10881;BME280;5493;48.884;8.338;2023-06-26T11:57:49;100216.72;;;32.92;45.99
10881;BME280;5493;48.884;8.338;2023-06-26T12:00:16;100216.06;;;32.99;45.18
10881;BME280;5493;48.884;8.338;2023-06-26T12:02:43;100222.75;;;32.94;46.03
10881;BME280;5493;48.884;8.338;2023-06-26T12:05:11;100217.84;;;32.88;46.14
10881;BME280;5493;48.884;8.338;2023-06-26T12:07:38;100214.38;;;32.94;44.11
10881;BME280;5493;48.884;8.338;2023-06-26T12:10:07;100208.28;;;32.89;44.55
10881;BME280;5493;48.884;8.338;2023-06-26T12:12:34;100222.97;;;32.63;43.23
10881;BME280;5493;48.884;8.338;2023-06-26T12:15:01;100229.53;;;32.74;43.63
10881;BME280;5493;48.884;8.338;2023-06-26T12:17:28;100212.81;;;32.55;43.63
10881;BME280;5493;48.884;8.338;2023-06-26T12:19:54;100220.22;;;33.08;43.38
10881;BME280;5493;48.884;8.338;2023-06-26T12:22:21;100221.78;;;33.29;44.36
10881;BME280;5493;48.884;8.338;2023-06-26T12:24:48;100229.94;;;33.37;42.46
10881;BME280;5493;48.884;8.338;2023-06-26T12:27:18;100226.03;;;32.39;43.28
10881;BME280;5493;48.884;8.338;2023-06-26T12:29:50;100219.78;;;32.64;44.09
10881;BME280;5493;48.884;8.338;2023-06-26T12:32:17;100221.41;;;33.07;41.96
10881;BME280;5493;48.884;8.338;2023-06-26T12:34:48;100222.16;;;33.04;41.92
10881;BME280;5493;48.884;8.338;2023-06-26T12:37:14;100215.50;;;32.71;42.48
10881;BME280;5493;48.884;8.338;2023-06-26T12:39:48;100223.13;;;32.70;41.89
10881;BME280;5493;48.884;8.338;2023-06-26T12:42:18;100207.81;;;32.26;42.35
10881;BME280;5493;48.884;8.338;2023-06-26T12:44:45;100210.84;;;32.97;42.57
10881;BME280;5493;48.884;8.338;2023-06-26T12:47:14;100208.03;;;33.43;40.63
10881;BME280;5493;48.884;8.338;2023-06-26T12:49:42;100206.88;;;33.67;41.46
10881;BME280;5493;48.884;8.338;2023-06-26T12:52:11;100195.34;;;33.72;40.63
10881;BME280;5493;48.884;8.338;2023-06-26T12:54:39;100183.63;;;33.62;40.91
10881;BME280;5493;48.884;8.338;2023-06-26T12:57:06;100200.94;;;33.72;40.36